sensor_id;sensor_type;location;lat;lon;timestamp;P1;durP1;ratioP1;P2;durP2;ratioP2
30543;SDS011;43388;46.308;4.600;2022-09-30T00:00:22;4.22;;;3.30;;
30543;SDS011;43388;46.308;4.600;2022-09-30T00:02:48;6.03;;;3.10;;
30543;SDS011;43388;46.308;4.600;2022-09-30T00:05:14;4.15;;;3.20;;
30543;SDS011;43388;46.308;4.600;2022-09-30T00:07:40;8.93;;;3.97;;
30543;SDS011;43388;46.308;4.600;2022-09-30T00:10:06;7.30;;;2.97;;
30543;SDS011;43388;46.308;4.600;2022-09-30T00:12:32;5.50;;;3.47;;
30543;SDS011;43388;46.308;4.600;2022-09-30T00:14:59;3.80;;;3.38;;
30543;SDS011;43388;46.308;4.600;2022-09-30T00:17:25;4.50;;;3.17;;
30543;SDS011;43388;46.308;4.600;2022-09-30T00:19:52;4.32;;;3.00;;
30543;SDS011;43388;46.308;4.600;2022-09-30T00:22:18;3.75;;;3.45;;
30543;SDS011;43388;46.308;4.600;2022-09-30T00:24:44;3.47;;;3.17;;
30543;SDS011;43388;46.308;4.600;2022-09-30T00:27:10;5.63;;;3.40;;
30543;SDS011;43388;46.308;4.600;2022-09-30T00:29:40;5.47;;;3.00;;
30543;SDS011;43388;46.308;4.600;2022-09-30T00:32:06;4.22;;;3.60;;
30543;SDS011;43388;46.308;4.600;2022-09-30T00:34:32;4.50;;;3.00;;
30543;SDS011;43388;46.308;4.600;2022-09-30T00:36:58;4.50;;;3.20;;
30543;SDS011;43388;46.308;4.600;2022-09-30T00:39:27;4.30;;;3.20;;
30543;SDS011;43388;46.308;4.600;2022-09-30T00:41:59;5.85;;;3.65;;
30543;SDS011;43388;46.308;4.600;2022-09-30T00:47:24;7.18;;;3.53;;
30543;SDS011;43388;46.308;4.600;2022-09-30T00:52:18;4.45;;;3.25;;
30543;SDS011;43388;46.308;4.600;2022-09-30T00:54:44;6.40;;;3.60;;
30543;SDS011;43388;46.308;4.600;2022-09-30T00:57:10;4.15;;;3.22;;
30543;SDS011;43388;46.308;4.600;2022-09-30T00:59:38;3.85;;;3.05;;
30543;SDS011;43388;46.308;4.600;2022-09-30T01:02:05;3.40;;;3.10;;
30543;SDS011;43388;46.308;4.600;2022-09-30T01:04:34;4.28;;;3.88;;
30543;SDS011;43388;46.308;4.600;2022-09-30T01:07:02;4.22;;;3.42;;
30543;SDS011;43388;46.308;4.600;2022-09-30T01:09:30;5.50;;;3.67;;
30543;SDS011;43388;46.308;4.600;2022-09-30T01:11:56;4.70;;;3.63;;
30543;SDS011;43388;46.308;4.600;2022-09-30T01:14:22;5.80;;;3.15;;
30543;SDS011;43388;46.308;4.600;2022-09-30T01:30:11;4.13;;;3.57;;
30543;SDS011;43388;46.308;4.600;2022-09-30T01:35:22;2.90;;;2.70;;
30543;SDS011;43388;46.308;4.600;2022-09-30T01:40:45;4.82;;;4.15;;
30543;SDS011;43388;46.308;4.600;2022-09-30T01:43:20;3.53;;;3.20;;
30543;SDS011;43388;46.308;4.600;2022-09-30T01:45:51;4.00;;;3.10;;
30543;SDS011;43388;46.308;4.600;2022-09-30T01:51:02;3.67;;;3.40;;
30543;SDS011;43388;46.308;4.600;2022-09-30T01:53:30;7.32;;;3.15;;
30543;SDS011;43388;46.308;4.600;2022-09-30T01:58:28;3.15;;;2.90;;
30543;SDS011;43388;46.308;4.600;2022-09-30T02:00:57;3.28;;;2.97;;
30543;SDS011;43388;46.308;4.600;2022-09-30T02:03:39;5.47;;;2.72;;
30543;SDS011;43388;46.308;4.600;2022-09-30T02:06:07;4.32;;;3.17;;
30543;SDS011;43388;46.308;4.600;2022-09-30T02:08:37;4.50;;;3.47;;
30543;SDS011;43388;46.308;4.600;2022-09-30T02:11:10;3.67;;;3.25;;
30543;SDS011;43388;46.308;4.600;2022-09-30T02:13:38;3.30;;;3.00;;
30543;SDS011;43388;46.308;4.600;2022-09-30T02:16:07;4.57;;;3.80;;
30543;SDS011;43388;46.308;4.600;2022-09-30T02:18:42;5.53;;;3.33;;
30543;SDS011;43388;46.308;4.600;2022-09-30T02:21:09;4.82;;;3.30;;
30543;SDS011;43388;46.308;4.600;2022-09-30T02:23:38;5.22;;;3.53;;
30543;SDS011;43388;46.308;4.600;2022-09-30T02:26:07;6.13;;;3.60;;
30543;SDS011;43388;46.308;4.600;2022-09-30T02:28:37;4.03;;;2.95;;
30543;SDS011;43388;46.308;4.600;2022-09-30T02:31:05;3.70;;;3.40;;
30543;SDS011;43388;46.308;4.600;2022-09-30T02:36:33;4.88;;;3.50;;
30543;SDS011;43388;46.308;4.600;2022-09-30T02:39:01;4.25;;;3.17;;
30543;SDS011;43388;46.308;4.600;2022-09-30T02:41:30;3.50;;;3.28;;
30543;SDS011;43388;46.308;4.600;2022-09-30T02:43:58;3.50;;;3.05;;
30543;SDS011;43388;46.308;4.600;2022-09-30T02:49:01;6.35;;;3.25;;
30543;SDS011;43388;46.308;4.600;2022-09-30T02:51:43;4.30;;;3.20;;
30543;SDS011;43388;46.308;4.600;2022-09-30T02:54:16;4.60;;;3.45;;
30543;SDS011;43388;46.308;4.600;2022-09-30T02:56:53;3.97;;;3.47;;
30543;SDS011;43388;46.308;4.600;2022-09-30T02:59:20;4.25;;;3.55;;
30543;SDS011;43388;46.308;4.600;2022-09-30T03:01:46;5.72;;;3.67;;
30543;SDS011;43388;46.308;4.600;2022-09-30T03:04:14;6.25;;;3.22;;
30543;SDS011;43388;46.308;4.600;2022-09-30T03:06:40;3.55;;;3.20;;
30543;SDS011;43388;46.308;4.600;2022-09-30T03:09:06;9.98;;;3.65;;
30543;SDS011;43388;46.308;4.600;2022-09-30T03:11:33;6.25;;;3.55;;
30543;SDS011;43388;46.308;4.600;2022-09-30T03:24:32;5.00;;;3.72;;
30543;SDS011;43388;46.308;4.600;2022-09-30T03:29:42;3.13;;;2.92;;
30543;SDS011;43388;46.308;4.600;2022-09-30T03:37:15;4.03;;;3.63;;
30543;SDS011;43388;46.308;4.600;2022-09-30T03:47:14;4.18;;;3.40;;
30543;SDS011;43388;46.308;4.600;2022-09-30T03:49:45;7.57;;;3.20;;
30543;SDS011;43388;46.308;4.600;2022-09-30T03:52:13;3.55;;;3.25;;
30543;SDS011;43388;46.308;4.600;2022-09-30T03:54:55;8.40;;;3.50;;
30543;SDS011;43388;46.308;4.600;2022-09-30T03:57:24;6.55;;;4.00;;
30543;SDS011;43388;46.308;4.600;2022-09-30T03:59:52;6.50;;;4.25;;
30543;SDS011;43388;46.308;4.600;2022-09-30T04:02:18;4.35;;;4.05;;
30543;SDS011;43388;46.308;4.600;2022-09-30T04:04:45;3.80;;;3.50;;
30543;SDS011;43388;46.308;4.600;2022-09-30T04:07:11;6.03;;;3.90;;
30543;SDS011;43388;46.308;4.600;2022-09-30T04:09:37;5.20;;;4.20;;
30543;SDS011;43388;46.308;4.600;2022-09-30T04:12:03;5.68;;;5.13;;
30543;SDS011;43388;46.308;4.600;2022-09-30T04:14:30;4.35;;;3.95;;
30543;SDS011;43388;46.308;4.600;2022-09-30T04:16:56;4.40;;;4.10;;
30543;SDS011;43388;46.308;4.600;2022-09-30T04:19:22;5.13;;;3.95;;
30543;SDS011;43388;46.308;4.600;2022-09-30T04:21:50;4.45;;;4.00;;
30543;SDS011;43388;46.308;4.600;2022-09-30T04:24:17;4.97;;;4.57;;
30543;SDS011;43388;46.308;4.600;2022-09-30T04:26:43;6.65;;;4.57;;
30543;SDS011;43388;46.308;4.600;2022-09-30T04:29:09;5.13;;;4.80;;
30543;SDS011;43388;46.308;4.600;2022-09-30T04:31:35;6.05;;;5.47;;
30543;SDS011;43388;46.308;4.600;2022-09-30T04:34:01;5.75;;;5.20;;
30543;SDS011;43388;46.308;4.600;2022-09-30T04:36:27;5.13;;;4.72;;
30543;SDS011;43388;46.308;4.600;2022-09-30T04:38:53;5.75;;;5.22;;
30543;SDS011;43388;46.308;4.600;2022-09-30T04:41:19;6.30;;;5.32;;
30543;SDS011;43388;46.308;4.600;2022-09-30T04:43:46;5.90;;;5.28;;
30543;SDS011;43388;46.308;4.600;2022-09-30T04:46:13;7.70;;;5.90;;
30543;SDS011;43388;46.308;4.600;2022-09-30T04:48:39;6.70;;;5.60;;
30543;SDS011;43388;46.308;4.600;2022-09-30T04:51:09;5.78;;;5.35;;
30543;SDS011;43388;46.308;4.600;2022-09-30T04:53:35;5.70;;;5.20;;
30543;SDS011;43388;46.308;4.600;2022-09-30T04:56:01;5.65;;;5.07;;
30543;SDS011;43388;46.308;4.600;2022-09-30T04:58:27;6.95;;;5.00;;
30543;SDS011;43388;46.308;4.600;2022-09-30T05:01:27;5.88;;;5.38;;
30543;SDS011;43388;46.308;4.600;2022-09-30T05:03:46;5.93;;;5.10;;
30543;SDS011;43388;46.308;4.600;2022-09-30T05:06:12;7.28;;;5.32;;
30543;SDS011;43388;46.308;4.600;2022-09-30T05:08:38;7.93;;;5.68;;
30543;SDS011;43388;46.308;4.600;2022-09-30T05:11:07;5.97;;;5.50;;
30543;SDS011;43388;46.308;4.600;2022-09-30T05:13:38;6.93;;;6.22;;
30543;SDS011;43388;46.308;4.600;2022-09-30T05:16:05;6.93;;;6.40;;
30543;SDS011;43388;46.308;4.600;2022-09-30T05:18:32;6.47;;;5.97;;
30543;SDS011;43388;46.308;4.600;2022-09-30T05:20:58;6.75;;;6.13;;
30543;SDS011;43388;46.308;4.600;2022-09-30T05:23:25;8.55;;;6.78;;
30543;SDS011;43388;46.308;4.600;2022-09-30T05:25:51;7.60;;;6.90;;
30543;SDS011;43388;46.308;4.600;2022-09-30T05:28:17;8.73;;;7.75;;
30543;SDS011;43388;46.308;4.600;2022-09-30T05:30:43;9.10;;;8.30;;
30543;SDS011;43388;46.308;4.600;2022-09-30T05:33:10;8.60;;;7.90;;
30543;SDS011;43388;46.308;4.600;2022-09-30T05:35:38;9.38;;;8.50;;
30543;SDS011;43388;46.308;4.600;2022-09-30T05:38:04;8.95;;;7.90;;
30543;SDS011;43388;46.308;4.600;2022-09-30T05:40:30;9.18;;;8.27;;
30543;SDS011;43388;46.308;4.600;2022-09-30T05:42:57;10.23;;;8.43;;
30543;SDS011;43388;46.308;4.600;2022-09-30T05:45:23;8.60;;;7.90;;
30543;SDS011;43388;46.308;4.600;2022-09-30T05:47:52;8.73;;;7.70;;
30543;SDS011;43388;46.308;4.600;2022-09-30T05:50:18;8.70;;;7.80;;
30543;SDS011;43388;46.308;4.600;2022-09-30T05:52:44;8.93;;;8.23;;
30543;SDS011;43388;46.308;4.600;2022-09-30T05:55:11;8.65;;;7.95;;
30543;SDS011;43388;46.308;4.600;2022-09-30T05:57:37;8.18;;;7.47;;
30543;SDS011;43388;46.308;4.600;2022-09-30T06:00:04;10.07;;;7.30;;
30543;SDS011;43388;46.308;4.600;2022-09-30T06:02:30;9.57;;;8.63;;
30543;SDS011;43388;46.308;4.600;2022-09-30T06:04:57;8.68;;;8.00;;
30543;SDS011;43388;46.308;4.600;2022-09-30T06:07:23;8.18;;;7.50;;
30543;SDS011;43388;46.308;4.600;2022-09-30T06:09:49;8.27;;;7.65;;
30543;SDS011;43388;46.308;4.600;2022-09-30T06:12:15;8.30;;;7.40;;
30543;SDS011;43388;46.308;4.600;2022-09-30T06:14:41;7.85;;;7.03;;
30543;SDS011;43388;46.308;4.600;2022-09-30T06:17:07;9.95;;;7.43;;
30543;SDS011;43388;46.308;4.600;2022-09-30T06:19:33;8.02;;;7.15;;
30543;SDS011;43388;46.308;4.600;2022-09-30T06:21:59;7.90;;;7.00;;
30543;SDS011;43388;46.308;4.600;2022-09-30T06:24:25;7.32;;;6.72;;
30543;SDS011;43388;46.308;4.600;2022-09-30T06:26:51;7.55;;;6.85;;
30543;SDS011;43388;46.308;4.600;2022-09-30T06:29:17;7.10;;;6.40;;
30543;SDS011;43388;46.308;4.600;2022-09-30T06:31:43;8.38;;;6.57;;
30543;SDS011;43388;46.308;4.600;2022-09-30T06:34:09;8.63;;;7.90;;
30543;SDS011;43388;46.308;4.600;2022-09-30T06:36:35;8.05;;;7.35;;
30543;SDS011;43388;46.308;4.600;2022-09-30T06:39:02;14.60;;;7.70;;
30543;SDS011;43388;46.308;4.600;2022-09-30T06:41:29;11.30;;;9.43;;
30543;SDS011;43388;46.308;4.600;2022-09-30T06:43:55;10.30;;;9.30;;
30543;SDS011;43388;46.308;4.600;2022-09-30T06:46:22;9.73;;;8.73;;
30543;SDS011;43388;46.308;4.600;2022-09-30T06:48:52;9.23;;;8.50;;
30543;SDS011;43388;46.308;4.600;2022-09-30T06:51:18;7.93;;;7.28;;
30543;SDS011;43388;46.308;4.600;2022-09-30T06:53:45;8.38;;;7.60;;
30543;SDS011;43388;46.308;4.600;2022-09-30T06:56:11;8.25;;;7.65;;
30543;SDS011;43388;46.308;4.600;2022-09-30T06:58:38;7.68;;;6.97;;
30543;SDS011;43388;46.308;4.600;2022-09-30T07:01:04;7.47;;;6.78;;
30543;SDS011;43388;46.308;4.600;2022-09-30T07:03:32;7.70;;;7.00;;
30543;SDS011;43388;46.308;4.600;2022-09-30T07:05:58;6.93;;;6.22;;
30543;SDS011;43388;46.308;4.600;2022-09-30T07:08:26;7.82;;;7.20;;
30543;SDS011;43388;46.308;4.600;2022-09-30T07:10:58;8.00;;;6.65;;
30543;SDS011;43388;46.308;4.600;2022-09-30T07:13:25;7.28;;;6.57;;
30543;SDS011;43388;46.308;4.600;2022-09-30T07:15:51;7.00;;;6.30;;
30543;SDS011;43388;46.308;4.600;2022-09-30T07:18:19;6.30;;;5.90;;
30543;SDS011;43388;46.308;4.600;2022-09-30T07:20:48;10.13;;;6.40;;
30543;SDS011;43388;46.308;4.600;2022-09-30T07:23:14;7.50;;;6.78;;
30543;SDS011;43388;46.308;4.600;2022-09-30T07:25:47;6.57;;;5.97;;
30543;SDS011;43388;46.308;4.600;2022-09-30T07:28:14;6.03;;;5.45;;
30543;SDS011;43388;46.308;4.600;2022-09-30T07:30:40;5.82;;;5.43;;
30543;SDS011;43388;46.308;4.600;2022-09-30T07:33:07;6.65;;;6.15;;
30543;SDS011;43388;46.308;4.600;2022-09-30T07:35:33;5.75;;;5.20;;
30543;SDS011;43388;46.308;4.600;2022-09-30T07:37:59;5.93;;;5.32;;
30543;SDS011;43388;46.308;4.600;2022-09-30T07:40:25;5.22;;;4.82;;
30543;SDS011;43388;46.308;4.600;2022-09-30T07:42:55;5.57;;;5.07;;
30543;SDS011;43388;46.308;4.600;2022-09-30T07:45:21;5.40;;;5.00;;
30543;SDS011;43388;46.308;4.600;2022-09-30T07:47:48;5.60;;;5.20;;
30543;SDS011;43388;46.308;4.600;2022-09-30T07:50:14;5.93;;;5.30;;
30543;SDS011;43388;46.308;4.600;2022-09-30T07:52:41;7.22;;;4.82;;
30543;SDS011;43388;46.308;4.600;2022-09-30T07:55:07;5.90;;;5.40;;
30543;SDS011;43388;46.308;4.600;2022-09-30T07:57:33;5.72;;;5.32;;
30543;SDS011;43388;46.308;4.600;2022-09-30T07:59:59;6.53;;;6.03;;
30543;SDS011;43388;46.308;4.600;2022-09-30T08:02:25;5.57;;;5.18;;
30543;SDS011;43388;46.308;4.600;2022-09-30T08:04:51;6.20;;;5.70;;
30543;SDS011;43388;46.308;4.600;2022-09-30T08:07:17;6.28;;;5.80;;
30543;SDS011;43388;46.308;4.600;2022-09-30T08:09:43;6.25;;;5.65;;
30543;SDS011;43388;46.308;4.600;2022-09-30T08:12:09;6.32;;;5.82;;
30543;SDS011;43388;46.308;4.600;2022-09-30T08:14:35;6.70;;;6.20;;
30543;SDS011;43388;46.308;4.600;2022-09-30T08:17:01;7.05;;;6.30;;
30543;SDS011;43388;46.308;4.600;2022-09-30T08:19:28;6.60;;;6.00;;
30543;SDS011;43388;46.308;4.600;2022-09-30T08:21:55;6.95;;;6.40;;
30543;SDS011;43388;46.308;4.600;2022-09-30T08:24:21;6.50;;;5.93;;
30543;SDS011;43388;46.308;4.600;2022-09-30T08:26:48;7.72;;;7.03;;
30543;SDS011;43388;46.308;4.600;2022-09-30T08:29:14;7.20;;;6.60;;
30543;SDS011;43388;46.308;4.600;2022-09-30T08:31:40;6.88;;;6.28;;
30543;SDS011;43388;46.308;4.600;2022-09-30T08:34:06;7.00;;;6.28;;
30543;SDS011;43388;46.308;4.600;2022-09-30T08:36:32;6.90;;;6.30;;
30543;SDS011;43388;46.308;4.600;2022-09-30T08:38:58;7.93;;;7.03;;
30543;SDS011;43388;46.308;4.600;2022-09-30T08:51:37;7.18;;;6.68;;
30543;SDS011;43388;46.308;4.600;2022-09-30T08:54:04;7.00;;;6.40;;
30543;SDS011;43388;46.308;4.600;2022-09-30T08:56:31;7.85;;;6.60;;
30543;SDS011;43388;46.308;4.600;2022-09-30T09:03:56;7.63;;;6.97;;
30543;SDS011;43388;46.308;4.600;2022-09-30T09:11:28;7.28;;;6.68;;
30543;SDS011;43388;46.308;4.600;2022-09-30T09:14:01;7.10;;;6.30;;
30543;SDS011;43388;46.308;4.600;2022-09-30T09:19:02;7.85;;;7.15;;
30543;SDS011;43388;46.308;4.600;2022-09-30T09:21:37;6.82;;;6.22;;
30543;SDS011;43388;46.308;4.600;2022-09-30T09:24:05;8.90;;;5.97;;
30543;SDS011;43388;46.308;4.600;2022-09-30T09:26:37;7.55;;;6.57;;
30543;SDS011;43388;46.308;4.600;2022-09-30T09:31:48;8.10;;;6.60;;
30543;SDS011;43388;46.308;4.600;2022-09-30T09:34:14;6.63;;;6.13;;
30543;SDS011;43388;46.308;4.600;2022-09-30T09:47:04;5.78;;;5.30;;
30543;SDS011;43388;46.308;4.600;2022-09-30T09:49:38;7.45;;;6.70;;
30543;SDS011;43388;46.308;4.600;2022-09-30T09:54:47;6.32;;;5.80;;
30543;SDS011;43388;46.308;4.600;2022-09-30T09:57:15;8.25;;;6.07;;
30543;SDS011;43388;46.308;4.600;2022-09-30T10:00:22;7.15;;;6.47;;
30543;SDS011;43388;46.308;4.600;2022-09-30T10:05:25;7.32;;;6.72;;
30543;SDS011;43388;46.308;4.600;2022-09-30T10:08:06;8.40;;;7.70;;
30543;SDS011;43388;46.308;4.600;2022-09-30T10:10:37;7.35;;;6.75;;
30543;SDS011;43388;46.308;4.600;2022-09-30T10:13:13;7.45;;;6.85;;
30543;SDS011;43388;46.308;4.600;2022-09-30T10:15:41;7.25;;;6.57;;
30543;SDS011;43388;46.308;4.600;2022-09-30T10:18:12;8.13;;;6.85;;
30543;SDS011;43388;46.308;4.600;2022-09-30T10:20:39;8.35;;;7.65;;
30543;SDS011;43388;46.308;4.600;2022-09-30T10:23:18;7.47;;;6.88;;
30543;SDS011;43388;46.308;4.600;2022-09-30T10:25:53;7.22;;;6.07;;
30543;SDS011;43388;46.308;4.600;2022-09-30T10:28:22;7.13;;;6.43;;
30543;SDS011;43388;46.308;4.600;2022-09-30T10:30:50;5.90;;;5.40;;
30543;SDS011;43388;46.308;4.600;2022-09-30T10:33:19;6.20;;;5.80;;
30543;SDS011;43388;46.308;4.600;2022-09-30T10:35:52;6.15;;;5.75;;
30543;SDS011;43388;46.308;4.600;2022-09-30T10:38:19;6.75;;;6.15;;
30543;SDS011;43388;46.308;4.600;2022-09-30T10:40:49;5.68;;;5.18;;
30543;SDS011;43388;46.308;4.600;2022-09-30T10:46:11;5.65;;;5.25;;
30543;SDS011;43388;46.308;4.600;2022-09-30T10:48:47;5.38;;;4.97;;
30543;SDS011;43388;46.308;4.600;2022-09-30T10:51:22;6.00;;;5.40;;
30543;SDS011;43388;46.308;4.600;2022-09-30T10:53:48;6.22;;;5.57;;
30543;SDS011;43388;46.308;4.600;2022-09-30T10:56:30;4.93;;;4.60;;
30543;SDS011;43388;46.308;4.600;2022-09-30T10:58:56;5.47;;;4.97;;
30543;SDS011;43388;46.308;4.600;2022-09-30T11:01:39;5.07;;;4.78;;
30543;SDS011;43388;46.308;4.600;2022-09-30T11:06:40;5.15;;;4.75;;
30543;SDS011;43388;46.308;4.600;2022-09-30T11:09:16;5.35;;;4.85;;
30543;SDS011;43388;46.308;4.600;2022-09-30T11:11:44;4.50;;;4.20;;
30543;SDS011;43388;46.308;4.600;2022-09-30T11:14:16;4.55;;;4.13;;
30543;SDS011;43388;46.308;4.600;2022-09-30T11:19:32;5.63;;;4.50;;
30543;SDS011;43388;46.308;4.600;2022-09-30T11:24:41;4.20;;;3.90;;
30543;SDS011;43388;46.308;4.600;2022-09-30T11:44:28;4.10;;;3.90;;
30543;SDS011;43388;46.308;4.600;2022-09-30T11:56:57;2.63;;;2.42;;
30543;SDS011;43388;46.308;4.600;2022-09-30T11:59:32;2.40;;;2.30;;
30543;SDS011;43388;46.308;4.600;2022-09-30T12:02:00;3.75;;;2.90;;
30543;SDS011;43388;46.308;4.600;2022-09-30T12:04:46;2.63;;;2.42;;
30543;SDS011;43388;46.308;4.600;2022-09-30T12:07:16;2.80;;;2.60;;
30543;SDS011;43388;46.308;4.600;2022-09-30T12:09:48;2.80;;;2.50;;
30543;SDS011;43388;46.308;4.600;2022-09-30T12:12:16;3.25;;;2.65;;
30543;SDS011;43388;46.308;4.600;2022-09-30T12:17:32;3.08;;;2.88;;
30543;SDS011;43388;46.308;4.600;2022-09-30T12:19:57;3.10;;;2.88;;
30543;SDS011;43388;46.308;4.600;2022-09-30T12:22:28;3.00;;;2.80;;
30543;SDS011;43388;46.308;4.600;2022-09-30T12:24:54;3.10;;;2.28;;
30543;SDS011;43388;46.308;4.600;2022-09-30T12:27:24;3.70;;;3.40;;
30543;SDS011;43388;46.308;4.600;2022-09-30T12:30:01;2.65;;;2.45;;
30543;SDS011;43388;46.308;4.600;2022-09-30T12:43:10;3.00;;;2.28;;
30543;SDS011;43388;46.308;4.600;2022-09-30T12:48:19;1.95;;;1.85;;
30543;SDS011;43388;46.308;4.600;2022-09-30T12:50:47;1.83;;;1.58;;
30543;SDS011;43388;46.308;4.600;2022-09-30T12:53:33;2.15;;;2.00;;
30543;SDS011;43388;46.308;4.600;2022-09-30T12:56:03;1.40;;;1.30;;
30543;SDS011;43388;46.308;4.600;2022-09-30T12:58:31;2.10;;;2.00;;
30543;SDS011;43388;46.308;4.600;2022-09-30T13:00:59;2.20;;;1.75;;
30543;SDS011;43388;46.308;4.600;2022-09-30T13:03:26;2.53;;;1.10;;
30543;SDS011;43388;46.308;4.600;2022-09-30T13:05:54;1.48;;;1.23;;
30543;SDS011;43388;46.308;4.600;2022-09-30T13:08:21;1.52;;;1.42;;
30543;SDS011;43388;46.308;4.600;2022-09-30T13:10:56;1.60;;;1.25;;
30543;SDS011;43388;46.308;4.600;2022-09-30T13:13:27;3.45;;;1.42;;
30543;SDS011;43388;46.308;4.600;2022-09-30T13:15:56;3.13;;;1.50;;
30543;SDS011;43388;46.308;4.600;2022-09-30T13:21:15;1.60;;;1.50;;
30543;SDS011;43388;46.308;4.600;2022-09-30T13:23:45;3.22;;;1.75;;
30543;SDS011;43388;46.308;4.600;2022-09-30T13:31:26;2.83;;;2.63;;
30543;SDS011;43388;46.308;4.600;2022-09-30T13:36:25;3.13;;;2.92;;
30543;SDS011;43388;46.308;4.600;2022-09-30T13:39:04;3.10;;;2.80;;
30543;SDS011;43388;46.308;4.600;2022-09-30T13:41:30;2.63;;;2.42;;
30543;SDS011;43388;46.308;4.600;2022-09-30T13:44:05;3.03;;;2.72;;
30543;SDS011;43388;46.308;4.600;2022-09-30T13:51:35;1.90;;;1.80;;
30543;SDS011;43388;46.308;4.600;2022-09-30T13:54:09;2.25;;;1.85;;
30543;SDS011;43388;46.308;4.600;2022-09-30T13:56:37;2.65;;;1.85;;
30543;SDS011;43388;46.308;4.600;2022-09-30T14:01:43;1.65;;;1.55;;
30543;SDS011;43388;46.308;4.600;2022-09-30T14:11:52;1.40;;;1.30;;
30543;SDS011;43388;46.308;4.600;2022-09-30T14:17:14;1.30;;;1.20;;
30543;SDS011;43388;46.308;4.600;2022-09-30T14:22:07;1.75;;;1.10;;
30543;SDS011;43388;46.308;4.600;2022-09-30T14:24:35;1.77;;;1.20;;
30543;SDS011;43388;46.308;4.600;2022-09-30T14:32:19;1.38;;;1.10;;
30543;SDS011;43388;46.308;4.600;2022-09-30T14:34:45;3.58;;;1.52;;
30543;SDS011;43388;46.308;4.600;2022-09-30T14:37:17;2.88;;;0.98;;
30543;SDS011;43388;46.308;4.600;2022-09-30T14:39:45;1.80;;;1.02;;
30543;SDS011;43388;46.308;4.600;2022-09-30T14:42:12;4.28;;;1.27;;
30543;SDS011;43388;46.308;4.600;2022-09-30T14:44:41;2.97;;;1.52;;
30543;SDS011;43388;46.308;4.600;2022-09-30T14:47:11;1.58;;;1.30;;
30543;SDS011;43388;46.308;4.600;2022-09-30T14:49:39;2.75;;;1.60;;
30543;SDS011;43388;46.308;4.600;2022-09-30T14:52:05;1.65;;;1.30;;
30543;SDS011;43388;46.308;4.600;2022-09-30T14:54:51;2.25;;;2.05;;
30543;SDS011;43388;46.308;4.600;2022-09-30T14:57:17;2.72;;;1.83;;
30543;SDS011;43388;46.308;4.600;2022-09-30T14:59:43;1.85;;;1.33;;
30543;SDS011;43388;46.308;4.600;2022-09-30T15:02:16;1.50;;;1.05;;
30543;SDS011;43388;46.308;4.600;2022-09-30T15:04:47;3.13;;;1.85;;
30543;SDS011;43388;46.308;4.600;2022-09-30T15:07:13;3.60;;;1.23;;
30543;SDS011;43388;46.308;4.600;2022-09-30T15:09:40;1.20;;;1.10;;
30543;SDS011;43388;46.308;4.600;2022-09-30T15:12:20;1.92;;;1.73;;
30543;SDS011;43388;46.308;4.600;2022-09-30T15:14:53;2.47;;;1.67;;
30543;SDS011;43388;46.308;4.600;2022-09-30T15:17:21;2.78;;;1.60;;
30543;SDS011;43388;46.308;4.600;2022-09-30T15:19:48;1.65;;;1.52;;
30543;SDS011;43388;46.308;4.600;2022-09-30T15:22:14;1.80;;;1.70;;
30543;SDS011;43388;46.308;4.600;2022-09-30T15:24:41;2.72;;;1.90;;
30543;SDS011;43388;46.308;4.600;2022-09-30T15:27:16;2.63;;;1.80;;
30543;SDS011;43388;46.308;4.600;2022-09-30T15:29:57;3.88;;;1.40;;
30543;SDS011;43388;46.308;4.600;2022-09-30T15:32:25;3.33;;;1.70;;
30543;SDS011;43388;46.308;4.600;2022-09-30T15:34:52;1.92;;;1.67;;
30543;SDS011;43388;46.308;4.600;2022-09-30T15:37:22;2.53;;;1.60;;
30543;SDS011;43388;46.308;4.600;2022-09-30T15:39:49;2.03;;;1.52;;
30543;SDS011;43388;46.308;4.600;2022-09-30T15:42:38;3.83;;;1.80;;
30543;SDS011;43388;46.308;4.600;2022-09-30T15:45:29;4.13;;;1.77;;
30543;SDS011;43388;46.308;4.600;2022-09-30T15:47:58;2.20;;;1.90;;
30543;SDS011;43388;46.308;4.600;2022-09-30T15:50:40;2.83;;;2.15;;
30543;SDS011;43388;46.308;4.600;2022-09-30T15:53:19;3.33;;;2.30;;
30543;SDS011;43388;46.308;4.600;2022-09-30T15:55:53;2.40;;;1.83;;
30543;SDS011;43388;46.308;4.600;2022-09-30T15:58:34;2.20;;;2.00;;
30543;SDS011;43388;46.308;4.600;2022-09-30T16:06:27;2.10;;;1.52;;
30543;SDS011;43388;46.308;4.600;2022-09-30T16:09:00;3.22;;;1.42;;
30543;SDS011;43388;46.308;4.600;2022-09-30T16:11:28;2.35;;;1.50;;
30543;SDS011;43388;46.308;4.600;2022-09-30T16:13:54;1.52;;;1.40;;
30543;SDS011;43388;46.308;4.600;2022-09-30T16:16:22;1.85;;;1.58;;
30543;SDS011;43388;46.308;4.600;2022-09-30T16:18:50;1.98;;;1.60;;
30543;SDS011;43388;46.308;4.600;2022-09-30T16:26:47;3.05;;;1.70;;
30543;SDS011;43388;46.308;4.600;2022-09-30T16:29:14;2.83;;;1.90;;
30543;SDS011;43388;46.308;4.600;2022-09-30T16:31:41;4.30;;;2.10;;
30543;SDS011;43388;46.308;4.600;2022-09-30T16:34:24;2.00;;;1.75;;
30543;SDS011;43388;46.308;4.600;2022-09-30T16:36:51;1.90;;;1.70;;
30543;SDS011;43388;46.308;4.600;2022-09-30T16:39:18;5.20;;;1.80;;
30543;SDS011;43388;46.308;4.600;2022-09-30T16:41:44;2.03;;;1.90;;
30543;SDS011;43388;46.308;4.600;2022-09-30T16:44:11;4.38;;;2.22;;
30543;SDS011;43388;46.308;4.600;2022-09-30T16:46:37;3.28;;;1.90;;
30543;SDS011;43388;46.308;4.600;2022-09-30T16:49:13;2.22;;;2.05;;
30543;SDS011;43388;46.308;4.600;2022-09-30T16:51:39;2.10;;;1.90;;
30543;SDS011;43388;46.308;4.600;2022-09-30T16:54:06;2.30;;;2.13;;
30543;SDS011;43388;46.308;4.600;2022-09-30T16:56:32;2.97;;;2.30;;
30543;SDS011;43388;46.308;4.600;2022-09-30T16:58:59;2.80;;;1.98;;
30543;SDS011;43388;46.308;4.600;2022-09-30T17:01:25;3.13;;;2.22;;
30543;SDS011;43388;46.308;4.600;2022-09-30T17:03:52;2.80;;;2.40;;
30543;SDS011;43388;46.308;4.600;2022-09-30T17:06:20;3.05;;;2.47;;
30543;SDS011;43388;46.308;4.600;2022-09-30T17:08:49;2.67;;;2.33;;
30543;SDS011;43388;46.308;4.600;2022-09-30T17:11:17;4.53;;;2.50;;
30543;SDS011;43388;46.308;4.600;2022-09-30T17:13:43;3.15;;;2.15;;
30543;SDS011;43388;46.308;4.600;2022-09-30T17:16:10;2.83;;;2.13;;
30543;SDS011;43388;46.308;4.600;2022-09-30T17:18:36;3.40;;;2.33;;
30543;SDS011;43388;46.308;4.600;2022-09-30T17:21:03;4.35;;;2.45;;
30543;SDS011;43388;46.308;4.600;2022-09-30T17:23:29;4.20;;;2.25;;
30543;SDS011;43388;46.308;4.600;2022-09-30T17:25:55;4.35;;;2.75;;
30543;SDS011;43388;46.308;4.600;2022-09-30T17:28:22;3.75;;;2.40;;
30543;SDS011;43388;46.308;4.600;2022-09-30T17:30:48;4.63;;;2.65;;
30543;SDS011;43388;46.308;4.600;2022-09-30T17:33:14;3.45;;;2.80;;
30543;SDS011;43388;46.308;4.600;2022-09-30T17:35:41;3.22;;;2.63;;
30543;SDS011;43388;46.308;4.600;2022-09-30T17:38:08;3.65;;;2.60;;
30543;SDS011;43388;46.308;4.600;2022-09-30T17:40:34;3.05;;;2.45;;
30543;SDS011;43388;46.308;4.600;2022-09-30T17:43:19;6.82;;;3.13;;
30543;SDS011;43388;46.308;4.600;2022-09-30T17:45:45;2.35;;;2.10;;
30543;SDS011;43388;46.308;4.600;2022-09-30T17:48:13;4.80;;;2.70;;
30543;SDS011;43388;46.308;4.600;2022-09-30T17:50:42;3.60;;;2.72;;
30543;SDS011;43388;46.308;4.600;2022-09-30T17:53:08;3.08;;;2.88;;
30543;SDS011;43388;46.308;4.600;2022-09-30T17:55:37;4.00;;;3.03;;
30543;SDS011;43388;46.308;4.600;2022-09-30T17:58:03;4.93;;;2.88;;
30543;SDS011;43388;46.308;4.600;2022-09-30T18:00:31;6.63;;;2.80;;
30543;SDS011;43388;46.308;4.600;2022-09-30T18:02:57;13.15;;;4.07;;
30543;SDS011;43388;46.308;4.600;2022-09-30T18:05:24;4.20;;;3.10;;
30543;SDS011;43388;46.308;4.600;2022-09-30T18:07:51;3.42;;;3.13;;
30543;SDS011;43388;46.308;4.600;2022-09-30T18:10:17;3.30;;;2.88;;
30543;SDS011;43388;46.308;4.600;2022-09-30T18:12:43;4.72;;;3.67;;
30543;SDS011;43388;46.308;4.600;2022-09-30T18:15:14;3.03;;;2.80;;
30543;SDS011;43388;46.308;4.600;2022-09-30T18:17:41;4.10;;;3.03;;
30543;SDS011;43388;46.308;4.600;2022-09-30T18:20:07;5.50;;;3.00;;